Terminal Aerodrome Forecast
Issued by NWS

Home | Current Version | Previous Version | Text Only | Print | Product List | Glossary On
Versions: 1 2 3 4 5 6 7 8 9 10 11 12 13 14 15 16 17 18 19 20 21 22 23 24 25 26 27 28 29 30 31 32 33 34 35 36 37 38 39 40 41 42
000
FTUS43 KICT 252320
TAFGBD
TAF
KGBD 252320Z 2600/2624 08006KT P6SM BKN050
     FM260900 16006KT P6SM SCT100
     FM261600 19014KT P6SM SCT200
     FM261900 18018G26KT P6SM SCT140=

USA.gov is the U.S. government's official web portal to all federal, state and local government web resources and services.